Time;durP1;ratioP1;P1;durP2;ratioP2;P2;SDS_P1;SDS_P2;PMS_P1;PMS_P2;Temp;Humidity;BMP_temperature;BMP_pressure;BME280_temperature;BME280_humidity;BME280_pressure;Samples;Min_cycle;Max_cycle;Signal;HPM_P1;HPM_P2
2023/10/02 00:01:23;;;;;;;7.77;5.03;;;;;;;;;;5067679;28;20292;-74
2023/10/02 00:04:16;;;;;;;7.53;4.57;;;;;;;;;;5062076;28;20282;-74
2023/10/02 00:06:38;;;;;;;8.38;4.85;;;;;;;;;;5063687;28;20226;-74
2023/10/02 00:09:05;;;;;;;9.33;5.23;;;;;;;;;;5068354;28;20207;-75
2023/10/02 00:11:40;;;;;;;8.15;4.93;;;;;;;;;;5068263;28;20207;-71
2023/10/02 00:14:19;;;;;;;8.73;4.85;;;;;;;;;;5066254;28;20320;-71
2023/10/02 00:16:59;;;;;;;8.55;4.95;;;;;;;;;;5068584;28;20227;-71
2023/10/02 00:19:30;;;;;;;14.63;5.15;;;;;;;;;;5068402;28;20199;-71
2023/10/02 00:21:59;;;;;;;10.10;5.20;;;;;;;;;;5067823;28;20227;-71
2023/10/02 00:24:27;;;;;;;8.13;5.40;;;;;;;;;;5067741;28;20211;-71
2023/10/02 00:26:57;;;;;;;8.87;5.53;;;;;;;;;;5067373;28;20199;-71
2023/10/02 00:29:25;;;;;;;7.18;4.95;;;;;;;;;;5067311;28;20264;-71
2023/10/02 00:31:54;;;;;;;8.60;4.50;;;;;;;;;;5062209;28;20759;-72
2023/10/02 00:34:30;;;;;;;5.07;4.23;;;;;;;;;;5064971;28;21032;-72
2023/10/02 00:37:05;;;;;;;6.50;4.43;;;;;;;;;;5048159;28;20223;-72
2023/10/02 00:39:32;;;;;;;8.37;3.93;;;;;;;;;;5052114;28;20596;-72
2023/10/02 00:42:24;;;;;;;6.50;4.40;;;;;;;;;;5067127;28;20260;-72
2023/10/02 00:44:54;;;;;;;5.57;4.00;;;;;;;;;;5062706;28;20238;-72
2023/10/02 00:47:41;;;;;;;8.73;3.90;;;;;;;;;;5066865;28;20506;-73
2023/10/02 00:50:10;;;;;;;6.57;4.20;;;;;;;;;;5067341;28;20641;-73
2023/10/02 00:52:40;;;;;;;8.83;4.43;;;;;;;;;;5066897;28;20238;-73
2023/10/02 00:55:09;;;;;;;5.83;3.80;;;;;;;;;;5066578;28;20203;-73
2023/10/02 00:57:36;;;;;;;5.90;4.10;;;;;;;;;;5063077;28;20250;-71
2023/10/02 01:00:06;;;;;;;6.00;3.83;;;;;;;;;;5066683;28;20676;-72
2023/10/02 01:02:35;;;;;;;7.93;3.40;;;;;;;;;;5066511;28;20207;-72
2023/10/02 01:05:04;;;;;;;7.93;4.00;;;;;;;;;;5066583;28;20203;-71
2023/10/02 01:07:33;;;;;;;5.70;3.93;;;;;;;;;;5067224;28;20203;-71
2023/10/02 01:10:08;;;;;;;7.67;3.70;;;;;;;;;;5061749;28;20215;-72
2023/10/02 01:12:43;;;;;;;9.90;3.90;;;;;;;;;;5066742;28;20694;-72
2023/10/02 01:15:11;;;;;;;5.60;4.20;;;;;;;;;;5067053;28;20668;-71
2023/10/02 01:17:40;;;;;;;11.60;4.23;;;;;;;;;;5067051;28;20242;-72
2023/10/02 01:20:20;;;;;;;8.03;4.40;;;;;;;;;;5066979;28;20213;-72
2023/10/02 01:22:51;;;;;;;6.50;4.30;;;;;;;;;;5066908;28;20211;-72
2023/10/02 01:25:23;;;;;;;7.00;4.60;;;;;;;;;;5066137;28;20851;-72
2023/10/02 01:27:51;;;;;;;8.63;4.50;;;;;;;;;;5067278;28;20648;-72
2023/10/02 01:30:20;;;;;;;7.33;4.40;;;;;;;;;;5050950;28;20276;-72
2023/10/02 01:35:39;;;;;;;8.87;4.47;;;;;;;;;;5065336;28;20226;-72
2023/10/02 01:38:12;;;;;;;7.30;4.67;;;;;;;;;;5064158;28;20707;-72
2023/10/02 01:40:42;;;;;;;7.10;4.30;;;;;;;;;;5066961;28;20195;-71
2023/10/02 01:43:13;;;;;;;8.10;4.20;;;;;;;;;;5064585;28;20234;-71
2023/10/02 01:45:44;;;;;;;7.20;4.47;;;;;;;;;;5062622;28;20604;-72
2023/10/02 01:48:15;;;;;;;7.50;4.53;;;;;;;;;;5066658;28;20286;-72
2023/10/02 01:50:44;;;;;;;9.73;4.33;;;;;;;;;;5064606;28;20295;-72
2023/10/02 01:53:29;;;;;;;10.27;4.63;;;;;;;;;;5066481;28;20211;-71
2023/10/02 01:56:10;;;;;;;6.93;4.20;;;;;;;;;;5066334;28;20215;-71
2023/10/02 01:58:39;;;;;;;7.97;4.00;;;;;;;;;;5052947;28;20636;-72
2023/10/02 02:01:07;;;;;;;6.27;4.33;;;;;;;;;;5066086;28;20211;-72
2023/10/02 02:03:36;;;;;;;6.17;3.70;;;;;;;;;;5065730;28;20211;-72
2023/10/02 02:06:08;;;;;;;6.90;3.97;;;;;;;;;;5064021;28;20315;-72
2023/10/02 02:08:36;;;;;;;9.37;4.57;;;;;;;;;;5065938;28;20668;-72
2023/10/02 02:11:16;;;;;;;6.90;4.23;;;;;;;;;;5065600;28;20665;-73
2023/10/02 02:13:47;;;;;;;7.00;4.40;;;;;;;;;;5065726;28;20206;-73
2023/10/02 02:16:16;;;;;;;6.30;4.57;;;;;;;;;;5066382;28;20260;-73
2023/10/02 02:18:43;;;;;;;8.90;5.00;;;;;;;;;;5065814;28;20769;-72
2023/10/02 02:21:15;;;;;;;7.57;4.07;;;;;;;;;;5066423;28;20264;-72
2023/10/02 02:23:42;;;;;;;9.37;5.00;;;;;;;;;;5066288;28;20280;-72
2023/10/02 02:26:20;;;;;;;7.87;4.40;;;;;;;;;;5066126;28;20203;-73
2023/10/02 02:28:49;;;;;;;7.77;4.77;;;;;;;;;;5063865;28;20229;-73
2023/10/02 02:31:30;;;;;;;9.13;4.83;;;;;;;;;;5066451;28;20222;-73
2023/10/02 02:33:58;;;;;;;7.20;4.37;;;;;;;;;;5066307;28;20289;-73
2023/10/02 02:36:27;;;;;;;7.57;4.33;;;;;;;;;;5066335;28;20217;-72
2023/10/02 02:39:15;;;;;;;7.23;4.60;;;;;;;;;;5065794;28;20241;-72
2023/10/02 02:41:44;;;;;;;6.47;4.40;;;;;;;;;;5065957;28;20203;-72
2023/10/02 02:44:29;;;;;;;5.03;4.20;;;;;;;;;;5066366;28;20223;-73
2023/10/02 02:46:57;;;;;;;6.03;4.20;;;;;;;;;;5066225;28;20221;-72
2023/10/02 02:49:26;;;;;;;7.50;4.50;;;;;;;;;;5065703;28;20558;-72
2023/10/02 02:51:56;;;;;;;7.17;4.17;;;;;;;;;;5066255;28;20199;-72
2023/10/02 02:54:25;;;;;;;7.47;4.27;;;;;;;;;;5066194;28;20221;-72
2023/10/02 02:56:58;;;;;;;7.20;4.67;;;;;;;;;;5065418;28;20206;-72
2023/10/02 02:59:27;;;;;;;10.73;4.93;;;;;;;;;;5062903;28;20199;-72
2023/10/02 03:02:08;;;;;;;7.07;4.40;;;;;;;;;;5065537;28;20252;-72
2023/10/02 03:04:38;;;;;;;9.53;4.93;;;;;;;;;;5065452;28;20567;-72
2023/10/02 03:07:09;;;;;;;5.53;4.67;;;;;;;;;;5064846;28;20195;-72
2023/10/02 03:09:36;;;;;;;6.77;4.30;;;;;;;;;;5066277;28;20293;-72
2023/10/02 03:12:05;;;;;;;8.20;4.90;;;;;;;;;;5065027;28;20199;-72
2023/10/02 03:14:33;;;;;;;8.70;4.80;;;;;;;;;;5064081;28;20814;-72
2023/10/02 03:17:22;;;;;;;9.10;4.60;;;;;;;;;;5066245;28;20922;-72
2023/10/02 03:19:49;;;;;;;7.97;4.63;;;;;;;;;;5061189;28;20225;-72
2023/10/02 03:22:20;;;;;;;9.40;4.50;;;;;;;;;;5069380;28;20206;-72
2023/10/02 03:24:48;;;;;;;10.70;4.87;;;;;;;;;;5069550;28;20203;-71
2023/10/02 03:27:16;;;;;;;6.27;4.27;;;;;;;;;;5069490;28;20638;-71
2023/10/02 03:29:45;;;;;;;10.20;4.90;;;;;;;;;;5068987;28;20211;-71
2023/10/02 03:32:12;;;;;;;8.33;4.73;;;;;;;;;;5069718;28;20198;-72
2023/10/02 03:34:48;;;;;;;7.73;4.60;;;;;;;;;;5069350;28;20207;-72
2023/10/02 03:37:21;;;;;;;10.50;5.03;;;;;;;;;;5069202;28;20218;-71
2023/10/02 03:40:13;;;;;;;8.90;5.00;;;;;;;;;;5069475;28;20211;-71
2023/10/02 03:42:42;;;;;;;5.87;4.63;;;;;;;;;;5066729;28;20318;-72
2023/10/02 03:45:12;;;;;;;6.87;4.77;;;;;;;;;;5068860;28;20242;-71
2023/10/02 03:47:41;;;;;;;6.03;4.40;;;;;;;;;;5068558;28;20286;-72
2023/10/02 03:50:14;;;;;;;9.40;4.27;;;;;;;;;;5068930;28;20203;-71
2023/10/02 03:52:45;;;;;;;6.47;4.63;;;;;;;;;;5068955;28;20584;-72
2023/10/02 03:55:17;;;;;;;6.80;4.53;;;;;;;;;;5069287;28;20649;-72
2023/10/02 03:57:52;;;;;;;8.77;4.93;;;;;;;;;;5068763;28;20310;-71
2023/10/02 04:00:24;;;;;;;7.53;4.67;;;;;;;;;;5068727;28;20203;-73
2023/10/02 04:02:52;;;;;;;13.87;4.30;;;;;;;;;;5066626;28;20323;-72
2023/10/02 04:05:32;;;;;;;7.13;4.33;;;;;;;;;;5066188;28;20229;-72
2023/10/02 04:08:19;;;;;;;6.57;4.57;;;;;;;;;;5067320;28;20205;-72
2023/10/02 04:10:56;;;;;;;7.40;4.60;;;;;;;;;;5068499;28;20691;-73
2023/10/02 04:13:25;;;;;;;6.93;4.37;;;;;;;;;;5068465;28;20221;-71
2023/10/02 04:16:27;;;;;;;10.23;4.47;;;;;;;;;;5068212;28;20718;-71
2023/10/02 04:18:47;;;;;;;7.07;4.43;;;;;;;;;;5068033;28;20225;-73
2023/10/02 04:21:14;;;;;;;9.03;4.87;;;;;;;;;;5068036;28;20214;-73
2023/10/02 04:23:42;;;;;;;5.90;4.30;;;;;;;;;;5068351;28;20252;-72
2023/10/02 04:26:19;;;;;;;6.90;4.67;;;;;;;;;;5068300;28;20199;-72
2023/10/02 04:28:55;;;;;;;6.77;4.17;;;;;;;;;;5067449;28;20195;-73
2023/10/02 04:31:22;;;;;;;7.77;4.63;;;;;;;;;;5068028;28;20230;-73
2023/10/02 04:33:54;;;;;;;8.13;4.20;;;;;;;;;;5066838;28;20610;-73
2023/10/02 04:36:34;;;;;;;9.53;4.03;;;;;;;;;;5068462;28;20222;-73
2023/10/02 04:39:04;;;;;;;11.00;4.57;;;;;;;;;;5068119;28;20733;-71
2023/10/02 04:41:37;;;;;;;6.73;4.20;;;;;;;;;;5067758;28;20195;-72
2023/10/02 04:44:17;;;;;;;5.10;4.10;;;;;;;;;;5067600;28;20233;-74
2023/10/02 04:46:45;;;;;;;4.60;4.00;;;;;;;;;;5066254;28;20199;-74
2023/10/02 04:49:13;;;;;;;4.93;3.53;;;;;;;;;;5055390;28;20221;-74
2023/10/02 04:51:46;;;;;;;6.93;4.03;;;;;;;;;;5067222;28;20288;-74
2023/10/02 04:54:15;;;;;;;9.03;4.20;;;;;;;;;;5068226;28;20203;-74
2023/10/02 04:56:46;;;;;;;7.47;4.80;;;;;;;;;;5068118;28;20199;-74
2023/10/02 04:59:15;;;;;;;10.73;4.43;;;;;;;;;;5067493;28;20235;-75
2023/10/02 05:01:42;;;;;;;4.90;4.40;;;;;;;;;;5067546;28;20203;-74
2023/10/02 05:04:18;;;;;;;5.80;4.17;;;;;;;;;;5063831;28;20244;-74
2023/10/02 05:06:52;;;;;;;4.73;3.87;;;;;;;;;;5066111;28;20658;-74
2023/10/02 05:09:26;;;;;;;8.57;4.27;;;;;;;;;;5064947;28;20567;-74
2023/10/02 05:11:55;;;;;;;4.37;3.63;;;;;;;;;;5067025;28;20284;-66
2023/10/02 05:14:26;;;;;;;4.57;3.70;;;;;;;;;;5067521;28;20210;-75
2023/10/02 05:16:53;;;;;;;4.47;4.07;;;;;;;;;;5067684;28;20579;-75
2023/10/02 05:19:46;;;;;;;5.50;3.90;;;;;;;;;;5067286;28;20734;-69
2023/10/02 05:22:08;;;;;;;6.43;3.80;;;;;;;;;;5066306;28;20741;-64
2023/10/02 05:24:34;;;;;;;6.00;4.27;;;;;;;;;;5066841;28;20728;-65
2023/10/02 05:27:08;;;;;;;9.77;4.17;;;;;;;;;;5066606;28;20235;-67
2023/10/02 05:29:40;;;;;;;5.90;3.63;;;;;;;;;;5063739;28;20207;-68
2023/10/02 05:32:19;;;;;;;6.13;4.23;;;;;;;;;;5064906;28;20210;-68
2023/10/02 05:35:03;;;;;;;9.37;4.23;;;;;;;;;;5064472;28;20297;-64
2023/10/02 05:37:31;;;;;;;7.40;4.50;;;;;;;;;;5065187;28;20383;-66
2023/10/02 05:40:37;;;;;;;7.37;3.67;;;;;;;;;;5066717;28;20602;-65
2023/10/02 05:42:53;;;;;;;6.67;4.17;;;;;;;;;;5066087;28;20223;-68
2023/10/02 05:45:37;;;;;;;6.47;4.23;;;;;;;;;;5066697;28;20273;-66
2023/10/02 05:48:08;;;;;;;9.40;4.50;;;;;;;;;;5058512;28;20210;-68
2023/10/02 05:50:37;;;;;;;7.83;4.40;;;;;;;;;;5063333;28;20215;-68
2023/10/02 05:53:06;;;;;;;8.03;4.10;;;;;;;;;;5065845;28;20691;-67
2023/10/02 05:55:56;;;;;;;5.70;3.80;;;;;;;;;;5065502;28;20214;-68
2023/10/02 05:58:27;;;;;;;9.80;4.07;;;;;;;;;;5065281;28;20261;-68
2023/10/02 06:00:57;;;;;;;7.57;4.10;;;;;;;;;;5065748;28;20207;-68
2023/10/02 06:03:24;;;;;;;6.00;4.33;;;;;;;;;;5065493;28;20676;-68
2023/10/02 06:08:34;;;;;;;8.37;4.00;;;;;;;;;;5065002;28;20191;-68
2023/10/02 06:11:25;;;;;;;5.00;4.30;;;;;;;;;;5065282;28;20249;-68
2023/10/02 06:14:09;;;;;;;4.00;3.57;;;;;;;;;;5065474;28;20214;-68
2023/10/02 06:16:39;;;;;;;4.33;3.50;;;;;;;;;;5064525;28;20290;-68
2023/10/02 06:19:13;;;;;;;4.43;3.60;;;;;;;;;;5064562;28;20311;-68
2023/10/02 06:21:45;;;;;;;5.07;3.10;;;;;;;;;;5064359;28;20211;-68
2023/10/02 06:24:13;;;;;;;6.70;4.00;;;;;;;;;;5063366;28;20414;-68
2023/10/02 06:26:50;;;;;;;6.27;4.20;;;;;;;;;;5065154;28;20746;-68
2023/10/02 06:29:22;;;;;;;6.23;3.53;;;;;;;;;;5064821;28;20202;-68
2023/10/02 06:31:58;;;;;;;4.50;3.60;;;;;;;;;;5064985;28;20218;-68
2023/10/02 06:34:26;;;;;;;5.77;3.83;;;;;;;;;;5065358;28;20210;-68
2023/10/02 06:37:07;;;;;;;7.13;4.10;;;;;;;;;;5064972;28;20219;-68
2023/10/02 06:39:35;;;;;;;5.63;3.80;;;;;;;;;;5044898;28;20231;-68
2023/10/02 06:42:04;;;;;;;7.07;4.43;;;;;;;;;;5045181;28;20428;-68
2023/10/02 06:44:38;;;;;;;5.20;4.20;;;;;;;;;;5045019;28;20270;-67
2023/10/02 06:47:11;;;;;;;5.90;4.10;;;;;;;;;;5061502;28;20238;-68
2023/10/02 06:49:39;;;;;;;5.27;4.07;;;;;;;;;;5062527;28;20207;-67
2023/10/02 06:52:13;;;;;;;4.93;3.77;;;;;;;;;;5064161;28;20206;-67
2023/10/02 06:54:42;;;;;;;5.77;3.83;;;;;;;;;;5066923;28;20217;-67
2023/10/02 06:57:11;;;;;;;6.23;4.03;;;;;;;;;;5069134;28;20211;-67
2023/10/02 06:59:39;;;;;;;5.57;4.20;;;;;;;;;;5068447;28;20234;-67
2023/10/02 07:02:09;;;;;;;5.07;4.03;;;;;;;;;;5068959;28;20233;-67
2023/10/02 07:04:37;;;;;;;7.33;4.07;;;;;;;;;;5068979;28;20211;-67
2023/10/02 07:07:06;;;;;;;8.87;4.17;;;;;;;;;;5068700;28;20211;-67
2023/10/02 07:09:37;;;;;;;5.72;4.10;;;;;;;;;;5068664;28;20203;-67
2023/10/02 07:12:13;;;;;;;5.20;3.35;;;;;;;;;;5067135;28;20210;-67
2023/10/02 07:14:41;;;;;;;11.02;5.13;;;;;;;;;;5065427;28;20704;-68
2023/10/02 07:17:16;;;;;;;10.50;6.35;;;;;;;;;;5068527;28;20721;-68
2023/10/02 07:19:48;;;;;;;11.60;6.72;;;;;;;;;;5064817;28;20226;-68
2023/10/02 07:22:17;;;;;;;10.27;6.15;;;;;;;;;;5068329;28;20301;-68
2023/10/02 07:24:45;;;;;;;10.75;6.05;;;;;;;;;;5067056;28;20207;-68
2023/10/02 07:27:22;;;;;;;13.48;7.15;;;;;;;;;;5066151;28;20207;-68
2023/10/02 07:29:51;;;;;;;11.15;7.07;;;;;;;;;;5068386;28;20318;-68
2023/10/02 07:32:20;;;;;;;12.68;7.78;;;;;;;;;;5068949;28;20242;-67
2023/10/02 07:34:48;;;;;;;10.60;6.75;;;;;;;;;;5068183;28;21146;-67
2023/10/02 07:37:21;;;;;;;9.43;6.70;;;;;;;;;;5068600;28;20257;-68
2023/10/02 07:39:48;;;;;;;13.30;7.32;;;;;;;;;;5071556;28;20318;-76
2023/10/02 07:42:16;;;;;;;18.85;7.68;;;;;;;;;;5085076;28;20345;-81
2023/10/02 07:44:45;;;;;;;14.73;7.25;;;;;;;;;;5079535;28;20390;-65
2023/10/02 07:47:18;;;;;;;15.35;9.13;;;;;;;;;;5068236;28;20215;-64
2023/10/02 07:49:48;;;;;;;12.07;7.88;;;;;;;;;;5065444;28;20214;-65
2023/10/02 07:52:26;;;;;;;16.45;8.15;;;;;;;;;;5067561;28;20615;-64
2023/10/02 07:54:58;;;;;;;11.05;6.90;;;;;;;;;;5067741;28;20248;-67
2023/10/02 07:57:30;;;;;;;15.60;7.25;;;;;;;;;;5066398;28;20221;-67
2023/10/02 07:59:58;;;;;;;11.73;7.07;;;;;;;;;;5064520;28;20231;-68
2023/10/02 08:02:30;;;;;;;11.77;7.80;;;;;;;;;;5067199;28;20290;-66
2023/10/02 08:04:59;;;;;;;17.38;7.35;;;;;;;;;;5066694;28;20261;-66
2023/10/02 08:07:27;;;;;;;18.75;8.93;;;;;;;;;;5068160;28;20234;-66
2023/10/02 08:09:57;;;;;;;14.68;8.63;;;;;;;;;;5064466;28;20257;-66
2023/10/02 08:12:30;;;;;;;14.20;8.45;;;;;;;;;;5067827;28;20245;-68
2023/10/02 08:14:59;;;;;;;16.92;8.43;;;;;;;;;;5068659;28;20577;-70
2023/10/02 08:18:00;;;;;;;19.15;8.90;;;;;;;;;;5064515;28;20207;-70
2023/10/02 08:20:32;;;;;;;15.23;8.43;;;;;;;;;;5053870;28;20284;-71
2023/10/02 08:23:02;;;;;;;15.27;8.93;;;;;;;;;;5061915;28;20302;-70
2023/10/02 08:25:29;;;;;;;13.00;8.35;;;;;;;;;;5056686;28;20298;-63
2023/10/02 08:27:57;;;;;;;14.27;8.50;;;;;;;;;;5065336;28;20211;-63
2023/10/02 08:30:31;;;;;;;14.05;8.55;;;;;;;;;;5066762;28;20207;-64
2023/10/02 08:33:05;;;;;;;14.45;8.18;;;;;;;;;;5066804;28;20287;-63
2023/10/02 08:35:36;;;;;;;14.52;8.63;;;;;;;;;;5066533;28;20605;-63
2023/10/02 08:38:07;;;;;;;15.57;9.15;;;;;;;;;;5065847;28;20413;-63
2023/10/02 08:40:39;;;;;;;18.20;8.85;;;;;;;;;;5066225;28;20253;-69
2023/10/02 08:43:06;;;;;;;11.13;8.40;;;;;;;;;;5066105;28;20245;-68
2023/10/02 08:45:33;;;;;;;13.70;8.45;;;;;;;;;;5066307;28;20265;-71
2023/10/02 08:48:07;;;;;;;15.27;8.85;;;;;;;;;;5061253;28;20215;-71
2023/10/02 08:50:37;;;;;;;15.95;8.85;;;;;;;;;;5065212;28;20211;-71
2023/10/02 08:53:09;;;;;;;15.82;8.35;;;;;;;;;;5065222;28;20211;-71
2023/10/02 08:55:43;;;;;;;13.57;8.18;;;;;;;;;;5065996;28;20265;-72
2023/10/02 08:58:17;;;;;;;14.25;8.40;;;;;;;;;;5064653;28;20210;-70
2023/10/02 09:01:06;;;;;;;14.68;7.38;;;;;;;;;;5059547;28;20945;-70
2023/10/02 09:03:41;;;;;;;13.60;8.10;;;;;;;;;;5062226;28;20293;-71
2023/10/02 09:06:31;;;;;;;17.48;8.43;;;;;;;;;;5065062;28;20620;-70
2023/10/02 09:09:16;;;;;;;16.17;8.77;;;;;;;;;;5060427;28;20196;-71
2023/10/02 09:11:44;;;;;;;15.35;8.45;;;;;;;;;;5065681;28;20268;-71
2023/10/02 09:14:21;;;;;;;14.40;8.27;;;;;;;;;;5064497;28;20734;-72
2023/10/02 09:17:07;;;;;;;17.90;9.48;;;;;;;;;;5062394;28;20692;-73
2023/10/02 09:19:37;;;;;;;15.38;9.15;;;;;;;;;;5063895;28;20356;-71
2023/10/02 09:22:10;;;;;;;15.82;8.90;;;;;;;;;;5064974;28;20847;-71
2023/10/02 09:24:40;;;;;;;14.88;8.60;;;;;;;;;;5051173;28;20215;-71
2023/10/02 09:27:24;;;;;;;14.88;8.73;;;;;;;;;;5065422;28;20408;-70
2023/10/02 09:30:15;;;;;;;16.60;8.25;;;;;;;;;;5064409;28;20214;-71
2023/10/02 09:32:49;;;;;;;17.35;8.98;;;;;;;;;;5064822;28;20320;-71
2023/10/02 09:35:29;;;;;;;17.98;8.93;;;;;;;;;;5065288;28;20318;-71
2023/10/02 09:38:03;;;;;;;14.50;8.32;;;;;;;;;;5061839;28;20302;-71
2023/10/02 09:40:53;;;;;;;14.75;8.30;;;;;;;;;;5065182;28;20231;-70
2023/10/02 09:43:22;;;;;;;14.82;7.72;;;;;;;;;;5065388;28;20242;-71
2023/10/02 09:45:50;;;;;;;15.20;8.57;;;;;;;;;;5064827;28;20246;-66
2023/10/02 09:51:07;;;;;;;15.10;8.85;;;;;;;;;;5063875;28;20223;-67
2023/10/02 09:53:39;;;;;;;19.23;9.10;;;;;;;;;;5061409;28;20292;-67
2023/10/02 09:56:12;;;;;;;12.85;8.25;;;;;;;;;;5064646;28;20225;-67
2023/10/02 09:58:48;;;;;;;14.00;7.93;;;;;;;;;;5062593;28;20202;-67
2023/10/02 10:01:37;;;;;;;17.25;8.30;;;;;;;;;;5064670;28;20493;-67
2023/10/02 10:07:06;;;;;;;15.35;8.98;;;;;;;;;;5064447;28;20210;-68
2023/10/02 10:12:50;;;;;;;16.02;8.30;;;;;;;;;;5063408;28;20639;-66
2023/10/02 10:15:31;;;;;;;18.30;9.02;;;;;;;;;;5064573;28;20208;-65
2023/10/02 10:17:58;;;;;;;19.65;8.85;;;;;;;;;;5063674;28;20238;-69
2023/10/02 10:20:28;;;;;;;21.73;8.55;;;;;;;;;;5065419;28;20231;-62
2023/10/02 10:22:59;;;;;;;14.85;8.00;;;;;;;;;;5065789;28;20298;-64
2023/10/02 10:25:49;;;;;;;18.75;8.75;;;;;;;;;;5065769;28;20215;-64
2023/10/02 10:28:29;;;;;;;13.85;8.13;;;;;;;;;;5059532;28;20226;-63
2023/10/02 10:31:01;;;;;;;19.60;8.50;;;;;;;;;;5065987;28;20226;-65
2023/10/02 10:33:35;;;;;;;14.80;7.25;;;;;;;;;;5065755;28;20211;-64
2023/10/02 10:36:08;;;;;;;11.68;6.65;;;;;;;;;;5065795;28;20214;-64
2023/10/02 10:38:41;;;;;;;13.45;7.78;;;;;;;;;;5064619;28;20236;-64
2023/10/02 10:41:15;;;;;;;18.58;8.00;;;;;;;;;;5065761;28;20231;-64
2023/10/02 10:43:55;;;;;;;14.93;8.02;;;;;;;;;;5065398;28;20242;-64
2023/10/02 10:46:23;;;;;;;14.93;7.90;;;;;;;;;;5063490;28;20215;-63
2023/10/02 10:48:59;;;;;;;17.60;8.25;;;;;;;;;;5063004;28;20214;-67
2023/10/02 10:51:27;;;;;;;14.20;7.53;;;;;;;;;;5064921;28;20210;-65
2023/10/02 10:54:12;;;;;;;14.73;7.68;;;;;;;;;;5065323;28;20246;-64
2023/10/02 10:56:43;;;;;;;17.00;6.95;;;;;;;;;;5045789;28;20707;-65
2023/10/02 10:59:15;;;;;;;13.32;6.72;;;;;;;;;;5045533;28;20681;-65
2023/10/02 11:02:09;;;;;;;13.90;6.95;;;;;;;;;;5049528;28;20219;-64
2023/10/02 11:04:39;;;;;;;14.18;6.82;;;;;;;;;;5048956;28;20216;-65
2023/10/02 11:07:19;;;;;;;13.18;7.05;;;;;;;;;;5063171;28;20245;-66
2023/10/02 11:10:12;;;;;;;10.68;6.53;;;;;;;;;;5072189;28;20308;-65
2023/10/02 11:12:54;;;;;;;12.48;6.30;;;;;;;;;;5052138;28;20202;-64
2023/10/02 11:15:44;;;;;;;9.70;6.15;;;;;;;;;;5050287;28;20325;-64
2023/10/02 11:18:18;;;;;;;12.95;6.22;;;;;;;;;;5064569;28;20210;-64
2023/10/02 11:20:49;;;;;;;15.77;6.75;;;;;;;;;;5064977;28;20238;-64
2023/10/02 11:23:22;;;;;;;11.82;6.90;;;;;;;;;;5065542;28;20297;-65
2023/10/02 11:25:55;;;;;;;12.88;6.55;;;;;;;;;;5065623;28;20567;-67
2023/10/02 11:28:30;;;;;;;11.90;6.55;;;;;;;;;;5065285;28;20744;-65
2023/10/02 11:31:29;;;;;;;15.63;7.03;;;;;;;;;;5063243;28;20198;-67
2023/10/02 11:34:00;;;;;;;13.68;6.72;;;;;;;;;;5065019;28;20245;-66
2023/10/02 11:36:28;;;;;;;11.65;6.63;;;;;;;;;;5060908;28;20743;-66
2023/10/02 11:38:56;;;;;;;13.15;6.38;;;;;;;;;;5056868;28;20404;-66
2023/10/02 11:41:23;;;;;;;14.57;6.75;;;;;;;;;;5068791;28;20227;-66
2023/10/02 11:43:52;;;;;;;14.18;7.28;;;;;;;;;;5068354;28;20314;-66
2023/10/02 11:46:20;;;;;;;13.10;6.80;;;;;;;;;;5069076;28;20243;-66
2023/10/02 11:48:49;;;;;;;14.10;6.60;;;;;;;;;;5068369;28;20199;-66
2023/10/02 11:51:16;;;;;;;15.57;6.53;;;;;;;;;;5069137;28;20199;-66
2023/10/02 11:53:43;;;;;;;14.02;6.85;;;;;;;;;;5067167;28;20683;-64
2023/10/02 11:56:34;;;;;;;14.43;6.13;;;;;;;;;;5068140;28;20288;-66
2023/10/02 11:59:03;;;;;;;12.70;6.55;;;;;;;;;;5064871;28;20297;-67
2023/10/02 12:01:30;;;;;;;10.70;6.43;;;;;;;;;;5068621;28;20231;-67
2023/10/02 12:03:57;;;;;;;11.40;6.05;;;;;;;;;;5080287;28;20213;-66
2023/10/02 12:06:25;;;;;;;15.55;6.85;;;;;;;;;;5063861;28;20224;-66
2023/10/02 12:08:56;;;;;;;16.55;6.15;;;;;;;;;;5053553;28;20583;-64
2023/10/02 12:11:24;;;;;;;13.82;6.25;;;;;;;;;;5068322;28;20381;-65
2023/10/02 12:13:52;;;;;;;10.02;5.72;;;;;;;;;;5067943;28;20211;-65
2023/10/02 12:16:21;;;;;;;15.68;6.03;;;;;;;;;;5067874;28;20211;-65
2023/10/02 12:18:50;;;;;;;10.25;6.07;;;;;;;;;;5068461;28;20211;-66
2023/10/02 12:21:19;;;;;;;11.35;6.53;;;;;;;;;;5065653;28;20223;-65
2023/10/02 12:23:46;;;;;;;12.57;6.93;;;;;;;;;;5059668;28;20678;-64
2023/10/02 12:26:14;;;;;;;14.82;6.50;;;;;;;;;;5063984;28;20206;-64
2023/10/02 12:28:42;;;;;;;12.38;5.90;;;;;;;;;;5066746;28;20856;-64
2023/10/02 12:31:12;;;;;;;11.18;5.90;;;;;;;;;;5067096;28;20225;-65
2023/10/02 12:33:42;;;;;;;10.40;6.15;;;;;;;;;;5064619;28;20215;-76
2023/10/02 12:36:17;;;;;;;12.32;6.53;;;;;;;;;;5064421;28;20704;-74
2023/10/02 12:38:44;;;;;;;11.02;6.85;;;;;;;;;;5066962;28;20210;-73
2023/10/02 12:41:12;;;;;;;10.30;6.10;;;;;;;;;;5066453;28;20223;-73
2023/10/02 12:43:40;;;;;;;13.10;6.13;;;;;;;;;;5066541;28;20234;-74
2023/10/02 12:46:07;;;;;;;13.65;6.60;;;;;;;;;;5067056;28;20647;-75
2023/10/02 12:48:34;;;;;;;12.20;6.32;;;;;;;;;;5067564;28;20211;-74
2023/10/02 12:51:07;;;;;;;11.00;6.68;;;;;;;;;;5073933;28;20203;-75
2023/10/02 12:53:36;;;;;;;13.30;6.65;;;;;;;;;;5064123;28;20215;-74
2023/10/02 12:56:05;;;;;;;11.45;6.75;;;;;;;;;;5066881;28;20692;-74
2023/10/02 12:58:32;;;;;;;13.90;6.43;;;;;;;;;;5066938;28;20760;-74
2023/10/02 13:01:00;;;;;;;10.38;6.18;;;;;;;;;;5059557;28;20229;-77
2023/10/02 13:03:40;;;;;;;;;;;;;;;;;;;;;
2023/10/02 13:06:20;;;;;;;12.73;5.95;;;;;;;;;;5061702;28;20217;-75
2023/10/02 13:08:49;;;;;;;12.57;6.30;;;;;;;;;;5067478;28;20210;-74
2023/10/02 13:11:21;;;;;;;11.18;6.60;;;;;;;;;;5065224;28;20207;-75
2023/10/02 13:14:02;;;;;;;14.20;6.20;;;;;;;;;;5066410;28;20207;-75
2023/10/02 13:16:31;;;;;;;13.02;7.40;;;;;;;;;;5065750;28;20207;-74
2023/10/02 13:18:59;;;;;;;13.05;6.70;;;;;;;;;;5066520;28;20211;-76
2023/10/02 13:21:53;;;;;;;16.10;6.80;;;;;;;;;;5066611;28;20260;-79
2023/10/02 13:24:23;;;;;;;12.70;6.55;;;;;;;;;;5055285;28;20264;-67
2023/10/02 13:26:51;;;;;;;14.98;7.72;;;;;;;;;;5067447;28;20284;-67
2023/10/02 13:29:19;;;;;;;12.50;6.90;;;;;;;;;;5066485;28;20222;-68
2023/10/02 13:31:47;;;;;;;16.73;7.13;;;;;;;;;;5066374;28;20633;-66
2023/10/02 13:34:15;;;;;;;19.17;7.25;;;;;;;;;;5062619;28;20880;-66
2023/10/02 13:36:44;;;;;;;10.48;6.47;;;;;;;;;;5065446;28;20720;-67
2023/10/02 13:39:16;;;;;;;13.25;6.68;;;;;;;;;;5065969;28;20210;-66
2023/10/02 13:41:45;;;;;;;13.30;6.65;;;;;;;;;;5065804;28;20230;-68
2023/10/02 13:44:12;;;;;;;15.50;7.10;;;;;;;;;;5063801;28;20682;-67
2023/10/02 13:46:39;;;;;;;14.13;7.45;;;;;;;;;;5066248;28;20198;-67
2023/10/02 13:49:08;;;;;;;14.10;6.68;;;;;;;;;;5066129;28;20248;-66
2023/10/02 13:51:36;;;;;;;13.48;6.40;;;;;;;;;;5067366;28;20213;-66
2023/10/02 13:54:04;;;;;;;16.05;7.22;;;;;;;;;;5068395;28;20310;-67
2023/10/02 13:56:35;;;;;;;13.65;6.53;;;;;;;;;;5066440;28;20210;-66
2023/10/02 13:59:03;;;;;;;13.60;7.00;;;;;;;;;;5063931;28;20211;-66
2023/10/02 14:01:32;;;;;;;16.05;7.07;;;;;;;;;;5065283;28;20223;-65
2023/10/02 14:04:00;;;;;;;13.48;6.70;;;;;;;;;;5065742;28;20214;-65
2023/10/02 14:06:28;;;;;;;13.30;6.72;;;;;;;;;;5066329;28;20203;-66
2023/10/02 14:08:56;;;;;;;13.63;7.50;;;;;;;;;;5062836;28;20211;-66
2023/10/02 14:11:25;;;;;;;12.50;7.00;;;;;;;;;;5049072;28;20247;-65
2023/10/02 14:13:53;;;;;;;11.18;6.47;;;;;;;;;;5062123;28;20217;-65
2023/10/02 14:16:21;;;;;;;16.50;7.45;;;;;;;;;;5063043;28;20628;-65
2023/10/02 14:18:51;;;;;;;13.32;7.10;;;;;;;;;;5057096;28;20214;-65
2023/10/02 14:21:21;;;;;;;14.60;7.18;;;;;;;;;;5055331;28;20229;-64
2023/10/02 14:23:48;;;;;;;18.90;8.10;;;;;;;;;;5061685;28;20297;-65
2023/10/02 14:26:16;;;;;;;16.85;7.60;;;;;;;;;;5063282;28;20203;-66
2023/10/02 14:28:46;;;;;;;18.13;7.75;;;;;;;;;;5062000;28;20628;-68
2023/10/02 14:31:13;;;;;;;12.13;7.18;;;;;;;;;;5062843;28;20204;-67
2023/10/02 14:33:43;;;;;;;15.55;8.00;;;;;;;;;;5062855;28;20294;-65
2023/10/02 14:36:11;;;;;;;19.98;7.55;;;;;;;;;;5062476;28;20236;-65
2023/10/02 14:38:39;;;;;;;17.50;7.72;;;;;;;;;;5061494;28;20260;-65
2023/10/02 14:41:10;;;;;;;14.68;7.60;;;;;;;;;;5062338;28;20234;-67
2023/10/02 14:43:37;;;;;;;16.90;8.48;;;;;;;;;;5062383;28;20313;-67
2023/10/02 14:46:07;;;;;;;17.45;7.70;;;;;;;;;;5062816;28;20292;-68
2023/10/02 14:48:36;;;;;;;18.10;7.97;;;;;;;;;;5062937;28;20260;-67
2023/10/02 14:51:05;;;;;;;15.82;7.28;;;;;;;;;;5061721;28;20310;-66
2023/10/02 14:53:32;;;;;;;15.45;7.70;;;;;;;;;;5056067;28;20207;-67
2023/10/02 14:59:04;;;;;;;14.65;7.50;;;;;;;;;;5042559;28;20314;-67
2023/10/02 15:01:33;;;;;;;16.50;7.65;;;;;;;;;;5065254;28;20223;-68
2023/10/02 15:04:00;;;;;;;15.80;6.38;;;;;;;;;;5063097;28;20205;-68
2023/10/02 15:06:37;;;;;;;13.80;6.78;;;;;;;;;;5070959;28;20546;-67
2023/10/02 15:09:09;;;;;;;13.15;7.28;;;;;;;;;;5069533;28;20587;-67
2023/10/02 15:11:37;;;;;;;12.18;6.45;;;;;;;;;;5063329;28;20203;-68
2023/10/02 15:14:04;;;;;;;14.68;6.60;;;;;;;;;;5084546;28;20865;-67
2023/10/02 15:16:36;;;;;;;14.75;7.30;;;;;;;;;;5074523;28;20300;-67
2023/10/02 15:19:04;;;;;;;13.00;7.20;;;;;;;;;;5063277;28;20218;-65
2023/10/02 15:21:32;;;;;;;15.50;7.22;;;;;;;;;;5066410;28;20231;-64
2023/10/02 15:23:59;;;;;;;12.05;7.20;;;;;;;;;;5062160;28;20213;-64